sensor_id;sensor_type;location;lat;lon;timestamp;P1;durP1;ratioP1;P2;durP2;ratioP2
74523;SDS011;63074;44.696;10.358;2024-03-08T00:00:17;3.17;;;1.42;;
74523;SDS011;63074;44.696;10.358;2024-03-08T00:02:44;2.45;;;1.27;;
74523;SDS011;63074;44.696;10.358;2024-03-08T00:05:11;2.35;;;1.48;;
74523;SDS011;63074;44.696;10.358;2024-03-08T00:07:38;3.92;;;1.50;;
74523;SDS011;63074;44.696;10.358;2024-03-08T00:10:05;2.13;;;1.10;;
74523;SDS011;63074;44.696;10.358;2024-03-08T00:12:36;2.13;;;1.02;;
74523;SDS011;63074;44.696;10.358;2024-03-08T00:15:03;2.88;;;1.50;;
74523;SDS011;63074;44.696;10.358;2024-03-08T00:17:29;1.58;;;1.08;;
74523;SDS011;63074;44.696;10.358;2024-03-08T00:19:56;2.88;;;1.50;;
74523;SDS011;63074;44.696;10.358;2024-03-08T00:22:22;2.90;;;1.23;;
74523;SDS011;63074;44.696;10.358;2024-03-08T00:24:48;1.77;;;1.25;;
74523;SDS011;63074;44.696;10.358;2024-03-08T00:27:16;3.13;;;1.25;;
74523;SDS011;63074;44.696;10.358;2024-03-08T00:29:42;2.50;;;1.35;;
74523;SDS011;63074;44.696;10.358;2024-03-08T00:32:08;1.45;;;0.77;;
74523;SDS011;63074;44.696;10.358;2024-03-08T00:34:35;1.95;;;1.17;;
74523;SDS011;63074;44.696;10.358;2024-03-08T00:37:04;3.38;;;1.30;;
74523;SDS011;63074;44.696;10.358;2024-03-08T00:39:30;2.15;;;0.80;;
74523;SDS011;63074;44.696;10.358;2024-03-08T00:41:56;2.75;;;1.05;;
74523;SDS011;63074;44.696;10.358;2024-03-08T00:44:22;2.25;;;1.13;;
74523;SDS011;63074;44.696;10.358;2024-03-08T00:46:49;2.40;;;0.90;;
74523;SDS011;63074;44.696;10.358;2024-03-08T00:49:16;2.45;;;1.30;;
74523;SDS011;63074;44.696;10.358;2024-03-08T00:51:42;2.22;;;0.90;;
74523;SDS011;63074;44.696;10.358;2024-03-08T00:54:08;1.67;;;1.05;;
74523;SDS011;63074;44.696;10.358;2024-03-08T00:56:34;1.88;;;0.98;;
74523;SDS011;63074;44.696;10.358;2024-03-08T00:59:01;1.90;;;1.10;;
74523;SDS011;63074;44.696;10.358;2024-03-08T01:01:27;1.92;;;0.80;;
74523;SDS011;63074;44.696;10.358;2024-03-08T01:03:54;2.55;;;1.45;;
74523;SDS011;63074;44.696;10.358;2024-03-08T01:06:22;1.60;;;0.98;;
74523;SDS011;63074;44.696;10.358;2024-03-08T01:08:48;2.33;;;1.48;;
74523;SDS011;63074;44.696;10.358;2024-03-08T01:11:17;1.80;;;0.95;;
74523;SDS011;63074;44.696;10.358;2024-03-08T01:13:44;3.67;;;1.27;;
74523;SDS011;63074;44.696;10.358;2024-03-08T01:16:12;2.75;;;1.40;;
74523;SDS011;63074;44.696;10.358;2024-03-08T01:18:38;2.33;;;1.65;;
74523;SDS011;63074;44.696;10.358;2024-03-08T01:21:04;3.08;;;1.58;;
74523;SDS011;63074;44.696;10.358;2024-03-08T01:23:31;2.20;;;1.27;;
74523;SDS011;63074;44.696;10.358;2024-03-08T01:25:57;3.13;;;1.65;;
74523;SDS011;63074;44.696;10.358;2024-03-08T01:28:23;2.45;;;1.30;;
74523;SDS011;63074;44.696;10.358;2024-03-08T01:30:50;2.38;;;1.35;;
74523;SDS011;63074;44.696;10.358;2024-03-08T01:33:21;3.25;;;1.55;;
74523;SDS011;63074;44.696;10.358;2024-03-08T01:35:48;2.95;;;1.45;;
74523;SDS011;63074;44.696;10.358;2024-03-08T01:38:15;3.65;;;1.67;;
74523;SDS011;63074;44.696;10.358;2024-03-08T01:40:41;2.97;;;1.52;;
74523;SDS011;63074;44.696;10.358;2024-03-08T01:45:52;2.88;;;1.40;;
74523;SDS011;63074;44.696;10.358;2024-03-08T01:48:19;3.08;;;1.38;;
74523;SDS011;63074;44.696;10.358;2024-03-08T01:50:49;2.65;;;1.60;;
74523;SDS011;63074;44.696;10.358;2024-03-08T01:53:17;3.30;;;1.90;;
74523;SDS011;63074;44.696;10.358;2024-03-08T01:55:47;2.90;;;1.80;;
74523;SDS011;63074;44.696;10.358;2024-03-08T02:00:41;4.07;;;1.65;;
74523;SDS011;63074;44.696;10.358;2024-03-08T02:03:10;3.28;;;1.90;;
74523;SDS011;63074;44.696;10.358;2024-03-08T02:05:36;3.42;;;2.10;;
74523;SDS011;63074;44.696;10.358;2024-03-08T02:08:05;3.47;;;2.13;;
74523;SDS011;63074;44.696;10.358;2024-03-08T02:10:35;2.63;;;1.85;;
74523;SDS011;63074;44.696;10.358;2024-03-08T02:13:02;3.45;;;1.90;;
74523;SDS011;63074;44.696;10.358;2024-03-08T02:18:16;6.10;;;2.55;;
74523;SDS011;63074;44.696;10.358;2024-03-08T02:20:43;4.65;;;2.42;;
74523;SDS011;63074;44.696;10.358;2024-03-08T02:23:14;4.50;;;3.10;;
74523;SDS011;63074;44.696;10.358;2024-03-08T02:25:40;4.95;;;2.83;;
74523;SDS011;63074;44.696;10.358;2024-03-08T02:28:12;4.25;;;3.05;;
74523;SDS011;63074;44.696;10.358;2024-03-08T02:30:39;6.28;;;4.05;;
74523;SDS011;63074;44.696;10.358;2024-03-08T02:33:06;8.02;;;3.88;;
74523;SDS011;63074;44.696;10.358;2024-03-08T02:35:34;6.95;;;4.22;;
74523;SDS011;63074;44.696;10.358;2024-03-08T02:38:01;9.77;;;4.32;;
74523;SDS011;63074;44.696;10.358;2024-03-08T02:40:28;7.80;;;4.38;;
74523;SDS011;63074;44.696;10.358;2024-03-08T02:42:55;6.82;;;4.40;;
74523;SDS011;63074;44.696;10.358;2024-03-08T02:45:21;8.05;;;5.07;;
74523;SDS011;63074;44.696;10.358;2024-03-08T02:47:47;7.53;;;3.95;;
74523;SDS011;63074;44.696;10.358;2024-03-08T02:50:15;6.13;;;3.40;;
74523;SDS011;63074;44.696;10.358;2024-03-08T02:52:44;5.88;;;3.58;;
74523;SDS011;63074;44.696;10.358;2024-03-08T02:57:41;5.05;;;2.80;;
74523;SDS011;63074;44.696;10.358;2024-03-08T03:00:08;4.03;;;2.70;;
74523;SDS011;63074;44.696;10.358;2024-03-08T03:02:35;6.13;;;3.88;;
74523;SDS011;63074;44.696;10.358;2024-03-08T03:05:02;6.95;;;3.72;;
74523;SDS011;63074;44.696;10.358;2024-03-08T03:07:32;6.20;;;3.85;;
74523;SDS011;63074;44.696;10.358;2024-03-08T03:09:59;5.72;;;3.05;;
74523;SDS011;63074;44.696;10.358;2024-03-08T03:12:29;7.40;;;3.83;;
74523;SDS011;63074;44.696;10.358;2024-03-08T03:14:59;6.00;;;4.13;;
74523;SDS011;63074;44.696;10.358;2024-03-08T03:17:25;7.82;;;4.57;;
74523;SDS011;63074;44.696;10.358;2024-03-08T03:19:52;7.18;;;3.75;;
74523;SDS011;63074;44.696;10.358;2024-03-08T03:22:18;6.53;;;4.10;;
74523;SDS011;63074;44.696;10.358;2024-03-08T03:24:45;6.28;;;3.60;;
74523;SDS011;63074;44.696;10.358;2024-03-08T03:27:12;9.52;;;3.75;;
74523;SDS011;63074;44.696;10.358;2024-03-08T03:29:39;5.47;;;3.45;;
74523;SDS011;63074;44.696;10.358;2024-03-08T03:32:13;4.55;;;2.92;;
74523;SDS011;63074;44.696;10.358;2024-03-08T03:34:40;6.30;;;2.42;;
74523;SDS011;63074;44.696;10.358;2024-03-08T03:37:08;4.88;;;2.38;;
74523;SDS011;63074;44.696;10.358;2024-03-08T03:39:37;5.30;;;2.83;;
74523;SDS011;63074;44.696;10.358;2024-03-08T03:42:17;5.97;;;3.22;;
74523;SDS011;63074;44.696;10.358;2024-03-08T03:44:45;5.80;;;3.42;;
74523;SDS011;63074;44.696;10.358;2024-03-08T03:47:12;8.63;;;3.75;;
74523;SDS011;63074;44.696;10.358;2024-03-08T03:49:39;5.00;;;3.05;;
74523;SDS011;63074;44.696;10.358;2024-03-08T03:52:06;5.05;;;3.08;;
74523;SDS011;63074;44.696;10.358;2024-03-08T03:54:32;5.13;;;2.35;;
74523;SDS011;63074;44.696;10.358;2024-03-08T03:56:58;5.70;;;2.60;;
74523;SDS011;63074;44.696;10.358;2024-03-08T03:59:25;5.35;;;3.58;;
74523;SDS011;63074;44.696;10.358;2024-03-08T04:01:55;4.95;;;3.00;;
74523;SDS011;63074;44.696;10.358;2024-03-08T04:04:21;4.65;;;2.85;;
74523;SDS011;63074;44.696;10.358;2024-03-08T04:06:49;6.47;;;3.72;;
74523;SDS011;63074;44.696;10.358;2024-03-08T04:09:16;6.63;;;3.88;;
74523;SDS011;63074;44.696;10.358;2024-03-08T04:11:47;4.78;;;3.00;;
74523;SDS011;63074;44.696;10.358;2024-03-08T04:14:14;6.15;;;3.20;;
74523;SDS011;63074;44.696;10.358;2024-03-08T04:16:40;6.90;;;3.55;;
74523;SDS011;63074;44.696;10.358;2024-03-08T04:19:06;5.15;;;3.38;;
74523;SDS011;63074;44.696;10.358;2024-03-08T04:21:33;5.25;;;3.00;;
74523;SDS011;63074;44.696;10.358;2024-03-08T04:23:59;5.07;;;2.83;;
74523;SDS011;63074;44.696;10.358;2024-03-08T04:26:26;6.75;;;3.22;;
74523;SDS011;63074;44.696;10.358;2024-03-08T04:28:52;6.85;;;3.58;;
74523;SDS011;63074;44.696;10.358;2024-03-08T04:31:18;5.93;;;3.25;;
74523;SDS011;63074;44.696;10.358;2024-03-08T04:33:44;4.50;;;2.78;;
74523;SDS011;63074;44.696;10.358;2024-03-08T04:36:10;6.15;;;2.67;;
74523;SDS011;63074;44.696;10.358;2024-03-08T04:38:38;4.75;;;3.38;;
74523;SDS011;63074;44.696;10.358;2024-03-08T04:41:06;6.90;;;2.75;;
74523;SDS011;63074;44.696;10.358;2024-03-08T04:43:32;5.38;;;3.22;;
74523;SDS011;63074;44.696;10.358;2024-03-08T04:45:59;6.28;;;3.65;;
74523;SDS011;63074;44.696;10.358;2024-03-08T04:48:28;6.75;;;3.50;;
74523;SDS011;63074;44.696;10.358;2024-03-08T04:50:54;7.10;;;3.63;;
74523;SDS011;63074;44.696;10.358;2024-03-08T04:53:21;5.82;;;3.33;;
74523;SDS011;63074;44.696;10.358;2024-03-08T04:55:47;8.25;;;3.15;;
74523;SDS011;63074;44.696;10.358;2024-03-08T04:58:14;5.88;;;3.60;;
74523;SDS011;63074;44.696;10.358;2024-03-08T05:00:40;5.32;;;3.28;;
74523;SDS011;63074;44.696;10.358;2024-03-08T05:03:06;7.30;;;3.58;;
74523;SDS011;63074;44.696;10.358;2024-03-08T05:05:33;6.63;;;3.58;;
74523;SDS011;63074;44.696;10.358;2024-03-08T05:07:59;4.88;;;2.40;;
74523;SDS011;63074;44.696;10.358;2024-03-08T05:10:26;5.20;;;2.97;;
74523;SDS011;63074;44.696;10.358;2024-03-08T05:12:52;6.28;;;2.17;;
74523;SDS011;63074;44.696;10.358;2024-03-08T05:15:18;3.80;;;2.05;;
74523;SDS011;63074;44.696;10.358;2024-03-08T05:17:45;2.80;;;2.00;;
74523;SDS011;63074;44.696;10.358;2024-03-08T05:20:11;3.45;;;1.25;;
74523;SDS011;63074;44.696;10.358;2024-03-08T05:22:38;4.28;;;1.95;;
74523;SDS011;63074;44.696;10.358;2024-03-08T05:25:07;3.55;;;1.48;;
74523;SDS011;63074;44.696;10.358;2024-03-08T05:27:34;2.90;;;1.23;;
74523;SDS011;63074;44.696;10.358;2024-03-08T05:30:02;5.03;;;2.65;;
74523;SDS011;63074;44.696;10.358;2024-03-08T05:32:29;4.15;;;2.55;;
74523;SDS011;63074;44.696;10.358;2024-03-08T05:34:56;8.55;;;5.53;;
74523;SDS011;63074;44.696;10.358;2024-03-08T05:37:22;4.72;;;3.55;;
74523;SDS011;63074;44.696;10.358;2024-03-08T05:39:50;5.50;;;2.33;;
74523;SDS011;63074;44.696;10.358;2024-03-08T05:42:16;9.35;;;7.63;;
74523;SDS011;63074;44.696;10.358;2024-03-08T05:44:42;6.43;;;3.67;;
74523;SDS011;63074;44.696;10.358;2024-03-08T05:47:08;10.27;;;8.95;;
74523;SDS011;63074;44.696;10.358;2024-03-08T05:49:36;5.13;;;3.17;;
74523;SDS011;63074;44.696;10.358;2024-03-08T05:52:02;6.68;;;4.75;;
74523;SDS011;63074;44.696;10.358;2024-03-08T05:54:28;6.68;;;3.72;;
74523;SDS011;63074;44.696;10.358;2024-03-08T05:56:54;5.35;;;3.97;;
74523;SDS011;63074;44.696;10.358;2024-03-08T05:59:20;3.08;;;2.17;;
74523;SDS011;63074;44.696;10.358;2024-03-08T06:01:48;2.47;;;1.63;;
74523;SDS011;63074;44.696;10.358;2024-03-08T06:04:14;3.08;;;1.92;;
74523;SDS011;63074;44.696;10.358;2024-03-08T06:06:43;2.97;;;1.38;;
74523;SDS011;63074;44.696;10.358;2024-03-08T06:09:09;3.13;;;1.58;;
74523;SDS011;63074;44.696;10.358;2024-03-08T06:14:06;2.03;;;1.55;;
74523;SDS011;63074;44.696;10.358;2024-03-08T06:16:32;3.13;;;1.73;;
74523;SDS011;63074;44.696;10.358;2024-03-08T06:19:00;2.97;;;1.30;;
74523;SDS011;63074;44.696;10.358;2024-03-08T06:21:27;5.28;;;1.95;;
74523;SDS011;63074;44.696;10.358;2024-03-08T06:23:54;6.45;;;2.35;;
74523;SDS011;63074;44.696;10.358;2024-03-08T06:26:20;5.10;;;2.33;;
74523;SDS011;63074;44.696;10.358;2024-03-08T06:28:47;7.80;;;2.63;;
74523;SDS011;63074;44.696;10.358;2024-03-08T06:31:14;13.35;;;3.65;;
74523;SDS011;63074;44.696;10.358;2024-03-08T06:33:40;11.25;;;3.55;;
74523;SDS011;63074;44.696;10.358;2024-03-08T06:36:06;12.07;;;5.07;;
74523;SDS011;63074;44.696;10.358;2024-03-08T06:38:33;11.20;;;5.72;;
74523;SDS011;63074;44.696;10.358;2024-03-08T06:40:59;10.32;;;4.70;;
74523;SDS011;63074;44.696;10.358;2024-03-08T06:43:28;11.32;;;4.60;;
74523;SDS011;63074;44.696;10.358;2024-03-08T06:45:59;12.02;;;4.43;;
74523;SDS011;63074;44.696;10.358;2024-03-08T06:48:25;7.13;;;3.47;;
74523;SDS011;63074;44.696;10.358;2024-03-08T06:50:51;7.03;;;2.97;;
74523;SDS011;63074;44.696;10.358;2024-03-08T06:53:17;6.82;;;2.97;;
74523;SDS011;63074;44.696;10.358;2024-03-08T06:55:44;7.65;;;3.80;;
74523;SDS011;63074;44.696;10.358;2024-03-08T06:58:10;8.98;;;4.93;;
74523;SDS011;63074;44.696;10.358;2024-03-08T07:00:36;8.15;;;4.40;;
74523;SDS011;63074;44.696;10.358;2024-03-08T07:03:03;8.68;;;3.03;;
74523;SDS011;63074;44.696;10.358;2024-03-08T07:05:32;8.45;;;4.05;;
74523;SDS011;63074;44.696;10.358;2024-03-08T07:08:00;9.55;;;4.10;;
74523;SDS011;63074;44.696;10.358;2024-03-08T07:10:26;6.20;;;3.67;;
74523;SDS011;63074;44.696;10.358;2024-03-08T07:12:53;7.85;;;3.58;;
74523;SDS011;63074;44.696;10.358;2024-03-08T07:15:20;8.98;;;3.28;;
74523;SDS011;63074;44.696;10.358;2024-03-08T07:17:48;8.93;;;3.88;;
74523;SDS011;63074;44.696;10.358;2024-03-08T07:20:17;9.20;;;4.20;;
74523;SDS011;63074;44.696;10.358;2024-03-08T07:22:44;9.65;;;4.60;;
74523;SDS011;63074;44.696;10.358;2024-03-08T07:25:12;17.52;;;6.85;;
74523;SDS011;63074;44.696;10.358;2024-03-08T07:27:46;15.30;;;7.38;;
74523;SDS011;63074;44.696;10.358;2024-03-08T07:30:13;18.70;;;7.97;;
74523;SDS011;63074;44.696;10.358;2024-03-08T07:32:59;21.55;;;9.43;;
74523;SDS011;63074;44.696;10.358;2024-03-08T07:35:27;22.63;;;9.65;;
74523;SDS011;63074;44.696;10.358;2024-03-08T07:37:54;19.10;;;9.43;;
74523;SDS011;63074;44.696;10.358;2024-03-08T07:40:21;21.88;;;9.57;;
74523;SDS011;63074;44.696;10.358;2024-03-08T07:42:48;24.17;;;9.73;;
74523;SDS011;63074;44.696;10.358;2024-03-08T07:45:15;20.15;;;9.52;;
74523;SDS011;63074;44.696;10.358;2024-03-08T07:47:41;22.67;;;9.57;;
74523;SDS011;63074;44.696;10.358;2024-03-08T07:50:08;23.92;;;9.25;;
74523;SDS011;63074;44.696;10.358;2024-03-08T07:52:35;23.02;;;11.02;;
74523;SDS011;63074;44.696;10.358;2024-03-08T07:55:02;22.40;;;9.70;;
74523;SDS011;63074;44.696;10.358;2024-03-08T07:57:31;23.02;;;9.50;;
74523;SDS011;63074;44.696;10.358;2024-03-08T07:59:58;21.55;;;10.10;;
74523;SDS011;63074;44.696;10.358;2024-03-08T08:02:24;28.02;;;11.25;;
74523;SDS011;63074;44.696;10.358;2024-03-08T08:04:50;25.35;;;10.27;;
74523;SDS011;63074;44.696;10.358;2024-03-08T08:07:16;25.70;;;11.43;;
74523;SDS011;63074;44.696;10.358;2024-03-08T08:09:42;24.85;;;10.82;;
74523;SDS011;63074;44.696;10.358;2024-03-08T08:12:09;25.25;;;11.45;;
74523;SDS011;63074;44.696;10.358;2024-03-08T08:14:37;26.58;;;11.60;;
74523;SDS011;63074;44.696;10.358;2024-03-08T08:17:04;27.05;;;10.43;;
74523;SDS011;63074;44.696;10.358;2024-03-08T08:19:30;25.02;;;11.93;;
74523;SDS011;63074;44.696;10.358;2024-03-08T08:22:00;25.83;;;11.40;;
74523;SDS011;63074;44.696;10.358;2024-03-08T08:24:29;25.90;;;11.25;;
74523;SDS011;63074;44.696;10.358;2024-03-08T08:26:55;23.80;;;11.50;;
74523;SDS011;63074;44.696;10.358;2024-03-08T08:29:22;24.25;;;11.63;;
74523;SDS011;63074;44.696;10.358;2024-03-08T08:31:48;27.08;;;11.65;;
74523;SDS011;63074;44.696;10.358;2024-03-08T08:34:15;24.67;;;11.70;;
74523;SDS011;63074;44.696;10.358;2024-03-08T08:36:44;23.83;;;10.27;;
74523;SDS011;63074;44.696;10.358;2024-03-08T08:39:10;27.65;;;11.95;;
74523;SDS011;63074;44.696;10.358;2024-03-08T08:41:38;23.85;;;11.07;;
74523;SDS011;63074;44.696;10.358;2024-03-08T08:44:06;23.88;;;11.70;;
74523;SDS011;63074;44.696;10.358;2024-03-08T08:46:37;24.15;;;10.60;;
74523;SDS011;63074;44.696;10.358;2024-03-08T08:49:04;22.15;;;10.85;;
74523;SDS011;63074;44.696;10.358;2024-03-08T08:51:31;26.48;;;11.73;;
74523;SDS011;63074;44.696;10.358;2024-03-08T08:54:00;23.15;;;12.30;;
74523;SDS011;63074;44.696;10.358;2024-03-08T08:56:26;25.27;;;11.93;;
74523;SDS011;63074;44.696;10.358;2024-03-08T08:58:53;23.08;;;11.05;;
74523;SDS011;63074;44.696;10.358;2024-03-08T09:01:20;22.85;;;11.07;;
74523;SDS011;63074;44.696;10.358;2024-03-08T09:03:46;23.80;;;11.20;;
74523;SDS011;63074;44.696;10.358;2024-03-08T09:06:12;23.73;;;10.30;;
74523;SDS011;63074;44.696;10.358;2024-03-08T09:08:39;22.08;;;9.88;;
74523;SDS011;63074;44.696;10.358;2024-03-08T09:11:05;24.63;;;10.95;;
74523;SDS011;63074;44.696;10.358;2024-03-08T09:13:31;20.30;;;11.15;;
74523;SDS011;63074;44.696;10.358;2024-03-08T09:16:04;22.73;;;10.60;;
74523;SDS011;63074;44.696;10.358;2024-03-08T09:18:31;22.20;;;10.63;;
74523;SDS011;63074;44.696;10.358;2024-03-08T09:20:58;20.27;;;10.20;;
74523;SDS011;63074;44.696;10.358;2024-03-08T09:23:24;21.30;;;10.52;;
74523;SDS011;63074;44.696;10.358;2024-03-08T09:25:55;25.90;;;11.82;;
74523;SDS011;63074;44.696;10.358;2024-03-08T09:28:22;25.70;;;12.70;;
74523;SDS011;63074;44.696;10.358;2024-03-08T09:30:49;22.75;;;10.52;;
74523;SDS011;63074;44.696;10.358;2024-03-08T09:33:15;21.55;;;10.80;;
74523;SDS011;63074;44.696;10.358;2024-03-08T09:35:45;25.73;;;11.13;;
74523;SDS011;63074;44.696;10.358;2024-03-08T09:38:12;21.70;;;9.90;;
74523;SDS011;63074;44.696;10.358;2024-03-08T09:40:40;22.35;;;9.75;;
74523;SDS011;63074;44.696;10.358;2024-03-08T09:43:07;20.17;;;9.60;;
74523;SDS011;63074;44.696;10.358;2024-03-08T09:45:36;22.83;;;10.35;;
74523;SDS011;63074;44.696;10.358;2024-03-08T09:48:15;20.10;;;9.30;;
74523;SDS011;63074;44.696;10.358;2024-03-08T09:50:44;22.83;;;10.07;;
74523;SDS011;63074;44.696;10.358;2024-03-08T09:53:13;20.40;;;10.57;;
74523;SDS011;63074;44.696;10.358;2024-03-08T09:55:39;21.48;;;10.02;;
74523;SDS011;63074;44.696;10.358;2024-03-08T09:58:11;21.05;;;10.52;;
74523;SDS011;63074;44.696;10.358;2024-03-08T10:01:01;22.80;;;10.93;;
74523;SDS011;63074;44.696;10.358;2024-03-08T10:03:29;23.15;;;10.95;;
74523;SDS011;63074;44.696;10.358;2024-03-08T10:05:57;21.05;;;10.20;;
74523;SDS011;63074;44.696;10.358;2024-03-08T10:08:26;23.95;;;10.88;;
74523;SDS011;63074;44.696;10.358;2024-03-08T10:10:54;23.15;;;11.00;;
74523;SDS011;63074;44.696;10.358;2024-03-08T10:13:23;22.45;;;10.32;;
74523;SDS011;63074;44.696;10.358;2024-03-08T10:15:52;21.67;;;10.52;;
74523;SDS011;63074;44.696;10.358;2024-03-08T10:18:19;25.90;;;11.23;;
74523;SDS011;63074;44.696;10.358;2024-03-08T10:20:46;21.92;;;11.40;;
74523;SDS011;63074;44.696;10.358;2024-03-08T10:25:55;21.55;;;10.13;;
74523;SDS011;63074;44.696;10.358;2024-03-08T10:28:23;25.77;;;11.68;;
74523;SDS011;63074;44.696;10.358;2024-03-08T10:30:54;29.85;;;11.77;;
74523;SDS011;63074;44.696;10.358;2024-03-08T10:33:23;24.83;;;10.25;;
74523;SDS011;63074;44.696;10.358;2024-03-08T10:35:50;27.45;;;11.60;;
74523;SDS011;63074;44.696;10.358;2024-03-08T10:38:17;21.98;;;11.07;;
74523;SDS011;63074;44.696;10.358;2024-03-08T10:40:47;25.48;;;11.60;;
74523;SDS011;63074;44.696;10.358;2024-03-08T10:43:19;25.30;;;11.60;;
74523;SDS011;63074;44.696;10.358;2024-03-08T10:45:50;23.27;;;10.80;;
74523;SDS011;63074;44.696;10.358;2024-03-08T10:48:27;24.08;;;11.15;;
74523;SDS011;63074;44.696;10.358;2024-03-08T10:50:57;22.42;;;11.25;;
74523;SDS011;63074;44.696;10.358;2024-03-08T10:53:27;21.58;;;10.88;;
74523;SDS011;63074;44.696;10.358;2024-03-08T10:55:55;26.92;;;12.15;;
74523;SDS011;63074;44.696;10.358;2024-03-08T10:58:23;25.27;;;12.00;;
74523;SDS011;63074;44.696;10.358;2024-03-08T11:00:52;29.42;;;12.80;;
74523;SDS011;63074;44.696;10.358;2024-03-08T11:06:13;23.27;;;10.88;;
74523;SDS011;63074;44.696;10.358;2024-03-08T11:08:41;25.38;;;11.10;;
74523;SDS011;63074;44.696;10.358;2024-03-08T11:13:59;22.90;;;11.93;;
74523;SDS011;63074;44.696;10.358;2024-03-08T11:19:00;24.35;;;12.73;;
74523;SDS011;63074;44.696;10.358;2024-03-08T11:21:31;23.10;;;10.43;;
74523;SDS011;63074;44.696;10.358;2024-03-08T11:24:08;18.67;;;9.90;;
74523;SDS011;63074;44.696;10.358;2024-03-08T11:26:38;23.55;;;11.60;;
74523;SDS011;63074;44.696;10.358;2024-03-08T11:29:39;23.17;;;11.13;;
74523;SDS011;63074;44.696;10.358;2024-03-08T11:34:36;22.02;;;10.52;;
74523;SDS011;63074;44.696;10.358;2024-03-08T11:37:17;24.88;;;11.43;;
74523;SDS011;63074;44.696;10.358;2024-03-08T11:39:49;21.90;;;10.35;;
74523;SDS011;63074;44.696;10.358;2024-03-08T11:42:18;22.45;;;12.07;;
74523;SDS011;63074;44.696;10.358;2024-03-08T11:44:47;21.65;;;10.77;;
74523;SDS011;63074;44.696;10.358;2024-03-08T11:47:15;21.77;;;11.73;;
74523;SDS011;63074;44.696;10.358;2024-03-08T11:49:41;21.50;;;11.02;;
74523;SDS011;63074;44.696;10.358;2024-03-08T11:52:13;20.98;;;10.18;;
74523;SDS011;63074;44.696;10.358;2024-03-08T11:54:41;21.08;;;10.15;;
74523;SDS011;63074;44.696;10.358;2024-03-08T11:57:08;20.35;;;11.18;;
74523;SDS011;63074;44.696;10.358;2024-03-08T11:59:37;20.40;;;11.07;;
74523;SDS011;63074;44.696;10.358;2024-03-08T12:02:04;20.55;;;10.57;;
74523;SDS011;63074;44.696;10.358;2024-03-08T12:04:31;22.92;;;11.65;;
74523;SDS011;63074;44.696;10.358;2024-03-08T12:07:01;23.55;;;11.23;;
74523;SDS011;63074;44.696;10.358;2024-03-08T12:09:33;21.30;;;11.50;;
74523;SDS011;63074;44.696;10.358;2024-03-08T12:12:03;21.92;;;10.80;;
74523;SDS011;63074;44.696;10.358;2024-03-08T12:14:32;21.98;;;10.75;;
74523;SDS011;63074;44.696;10.358;2024-03-08T12:16:59;20.38;;;10.80;;
74523;SDS011;63074;44.696;10.358;2024-03-08T12:19:29;21.30;;;10.45;;
74523;SDS011;63074;44.696;10.358;2024-03-08T12:21:56;22.52;;;10.77;;
74523;SDS011;63074;44.696;10.358;2024-03-08T12:24:22;21.23;;;11.35;;
74523;SDS011;63074;44.696;10.358;2024-03-08T12:26:48;21.60;;;11.30;;
74523;SDS011;63074;44.696;10.358;2024-03-08T12:31:43;20.58;;;11.43;;
74523;SDS011;63074;44.696;10.358;2024-03-08T12:34:09;22.33;;;12.43;;
74523;SDS011;63074;44.696;10.358;2024-03-08T12:36:36;20.90;;;11.63;;
74523;SDS011;63074;44.696;10.358;2024-03-08T12:39:02;23.58;;;11.63;;
74523;SDS011;63074;44.696;10.358;2024-03-08T12:41:29;23.42;;;11.55;;
74523;SDS011;63074;44.696;10.358;2024-03-08T12:43:55;22.17;;;11.45;;
74523;SDS011;63074;44.696;10.358;2024-03-08T12:46:21;21.65;;;10.75;;
74523;SDS011;63074;44.696;10.358;2024-03-08T12:51:18;21.70;;;10.85;;
74523;SDS011;63074;44.696;10.358;2024-03-08T12:53:46;18.77;;;10.55;;
74523;SDS011;63074;44.696;10.358;2024-03-08T12:56:12;18.35;;;10.93;;
74523;SDS011;63074;44.696;10.358;2024-03-08T12:58:44;19.02;;;10.23;;
74523;SDS011;63074;44.696;10.358;2024-03-08T13:01:10;18.88;;;10.40;;
74523;SDS011;63074;44.696;10.358;2024-03-08T13:03:37;22.33;;;11.73;;
74523;SDS011;63074;44.696;10.358;2024-03-08T13:06:04;20.77;;;10.38;;
74523;SDS011;63074;44.696;10.358;2024-03-08T13:08:34;22.10;;;11.02;;
74523;SDS011;63074;44.696;10.358;2024-03-08T13:11:04;22.52;;;11.07;;
74523;SDS011;63074;44.696;10.358;2024-03-08T13:13:32;23.88;;;11.75;;
74523;SDS011;63074;44.696;10.358;2024-03-08T13:16:04;20.10;;;11.07;;
74523;SDS011;63074;44.696;10.358;2024-03-08T13:18:33;23.70;;;11.57;;
74523;SDS011;63074;44.696;10.358;2024-03-08T13:21:00;21.23;;;10.90;;
74523;SDS011;63074;44.696;10.358;2024-03-08T13:23:40;19.38;;;9.45;;
74523;SDS011;63074;44.696;10.358;2024-03-08T13:26:10;18.88;;;10.73;;
74523;SDS011;63074;44.696;10.358;2024-03-08T13:28:40;20.40;;;10.57;;
74523;SDS011;63074;44.696;10.358;2024-03-08T13:31:19;18.58;;;9.95;;
74523;SDS011;63074;44.696;10.358;2024-03-08T13:33:46;16.85;;;9.80;;
74523;SDS011;63074;44.696;10.358;2024-03-08T13:36:12;19.55;;;10.43;;
74523;SDS011;63074;44.696;10.358;2024-03-08T13:38:46;18.83;;;10.40;;
74523;SDS011;63074;44.696;10.358;2024-03-08T13:41:16;17.25;;;9.43;;
74523;SDS011;63074;44.696;10.358;2024-03-08T13:43:46;18.05;;;10.27;;
74523;SDS011;63074;44.696;10.358;2024-03-08T13:48:42;16.42;;;8.32;;
74523;SDS011;63074;44.696;10.358;2024-03-08T13:51:09;14.52;;;8.98;;
74523;SDS011;63074;44.696;10.358;2024-03-08T13:53:37;12.35;;;7.40;;
74523;SDS011;63074;44.696;10.358;2024-03-08T13:56:05;12.85;;;6.97;;
74523;SDS011;63074;44.696;10.358;2024-03-08T13:58:31;14.23;;;7.53;;
74523;SDS011;63074;44.696;10.358;2024-03-08T14:00:57;15.13;;;7.15;;
74523;SDS011;63074;44.696;10.358;2024-03-08T14:03:25;11.60;;;7.25;;
74523;SDS011;63074;44.696;10.358;2024-03-08T14:05:51;10.68;;;5.75;;
74523;SDS011;63074;44.696;10.358;2024-03-08T14:08:17;10.90;;;5.57;;
74523;SDS011;63074;44.696;10.358;2024-03-08T14:10:43;12.48;;;6.93;;
74523;SDS011;63074;44.696;10.358;2024-03-08T14:13:12;11.55;;;5.80;;
74523;SDS011;63074;44.696;10.358;2024-03-08T14:15:41;11.88;;;6.38;;
74523;SDS011;63074;44.696;10.358;2024-03-08T14:18:07;12.38;;;6.70;;
74523;SDS011;63074;44.696;10.358;2024-03-08T14:20:33;12.10;;;6.97;;
74523;SDS011;63074;44.696;10.358;2024-03-08T14:23:00;12.50;;;6.15;;
74523;SDS011;63074;44.696;10.358;2024-03-08T14:25:26;13.27;;;6.15;;
74523;SDS011;63074;44.696;10.358;2024-03-08T14:27:54;15.02;;;7.93;;
74523;SDS011;63074;44.696;10.358;2024-03-08T14:30:27;13.45;;;7.15;;
74523;SDS011;63074;44.696;10.358;2024-03-08T14:33:03;15.55;;;6.78;;
74523;SDS011;63074;44.696;10.358;2024-03-08T14:35:31;13.82;;;7.30;;
74523;SDS011;63074;44.696;10.358;2024-03-08T14:37:57;13.73;;;6.60;;
74523;SDS011;63074;44.696;10.358;2024-03-08T14:40:24;13.35;;;6.95;;
74523;SDS011;63074;44.696;10.358;2024-03-08T14:42:50;16.35;;;7.20;;
74523;SDS011;63074;44.696;10.358;2024-03-08T14:45:17;15.05;;;7.10;;
74523;SDS011;63074;44.696;10.358;2024-03-08T14:47:47;13.73;;;6.72;;
74523;SDS011;63074;44.696;10.358;2024-03-08T14:50:17;15.45;;;7.93;;
74523;SDS011;63074;44.696;10.358;2024-03-08T14:52:44;11.55;;;7.57;;
74523;SDS011;63074;44.696;10.358;2024-03-08T14:55:16;15.77;;;8.18;;
74523;SDS011;63074;44.696;10.358;2024-03-08T14:57:45;15.43;;;7.65;;
74523;SDS011;63074;44.696;10.358;2024-03-08T15:00:12;13.30;;;7.50;;